sensor_id;sensor_type;location;lat;lon;timestamp;P1;durP1;ratioP1;P2;durP2;ratioP2
23588;SDS011;11972;48.078;11.876;2022-11-20T00:00:10;2.50;;;1.38;;
23588;SDS011;11972;48.078;11.876;2022-11-20T00:04:11;2.95;;;1.45;;
23588;SDS011;11972;48.078;11.876;2022-11-20T00:08:12;1.73;;;1.50;;
23588;SDS011;11972;48.078;11.876;2022-11-20T00:12:12;3.70;;;1.85;;
23588;SDS011;11972;48.078;11.876;2022-11-20T00:16:14;1.10;;;1.10;;
23588;SDS011;11972;48.078;11.876;2022-11-20T00:20:16;1.70;;;1.20;;
23588;SDS011;11972;48.078;11.876;2022-11-20T00:24:16;2.15;;;1.40;;
23588;SDS011;11972;48.078;11.876;2022-11-20T00:28:17;2.00;;;1.17;;
23588;SDS011;11972;48.078;11.876;2022-11-20T00:32:17;1.83;;;1.25;;
23588;SDS011;11972;48.078;11.876;2022-11-20T00:36:18;2.38;;;1.20;;
23588;SDS011;11972;48.078;11.876;2022-11-20T00:40:20;1.73;;;1.27;;
23588;SDS011;11972;48.078;11.876;2022-11-20T00:44:20;2.60;;;1.50;;
23588;SDS011;11972;48.078;11.876;2022-11-20T00:48:21;1.40;;;1.30;;
23588;SDS011;11972;48.078;11.876;2022-11-20T00:52:22;1.67;;;1.02;;
23588;SDS011;11972;48.078;11.876;2022-11-20T00:56:23;3.53;;;1.10;;
23588;SDS011;11972;48.078;11.876;2022-11-20T01:00:23;1.38;;;1.10;;
23588;SDS011;11972;48.078;11.876;2022-11-20T01:04:23;1.15;;;1.00;;
23588;SDS011;11972;48.078;11.876;2022-11-20T01:08:24;1.58;;;1.00;;
23588;SDS011;11972;48.078;11.876;2022-11-20T01:12:24;1.27;;;1.15;;
23588;SDS011;11972;48.078;11.876;2022-11-20T01:16:26;1.20;;;0.90;;
23588;SDS011;11972;48.078;11.876;2022-11-20T01:20:36;1.08;;;0.98;;
23588;SDS011;11972;48.078;11.876;2022-11-20T01:24:36;2.70;;;1.08;;
23588;SDS011;11972;48.078;11.876;2022-11-20T01:28:37;1.45;;;1.00;;
23588;SDS011;11972;48.078;11.876;2022-11-20T01:32:38;1.70;;;1.40;;
23588;SDS011;11972;48.078;11.876;2022-11-20T01:36:38;2.47;;;1.10;;
23588;SDS011;11972;48.078;11.876;2022-11-20T01:40:39;1.20;;;1.00;;
23588;SDS011;11972;48.078;11.876;2022-11-20T01:44:43;1.85;;;1.05;;
23588;SDS011;11972;48.078;11.876;2022-11-20T01:48:50;1.40;;;1.30;;
23588;SDS011;11972;48.078;11.876;2022-11-20T01:52:54;1.73;;;1.50;;
23588;SDS011;11972;48.078;11.876;2022-11-20T01:56:59;2.47;;;1.50;;
23588;SDS011;11972;48.078;11.876;2022-11-20T02:01:00;2.95;;;1.40;;
23588;SDS011;11972;48.078;11.876;2022-11-20T02:05:02;2.00;;;1.50;;
23588;SDS011;11972;48.078;11.876;2022-11-20T02:09:11;3.70;;;1.73;;
23588;SDS011;11972;48.078;11.876;2022-11-20T02:13:12;3.20;;;1.42;;
23588;SDS011;11972;48.078;11.876;2022-11-20T02:25:50;1.75;;;1.42;;
23588;SDS011;11972;48.078;11.876;2022-11-20T02:33:55;1.63;;;1.48;;
23588;SDS011;11972;48.078;11.876;2022-11-20T02:37:59;3.67;;;1.52;;
23588;SDS011;11972;48.078;11.876;2022-11-20T02:42:02;2.08;;;1.90;;
23588;SDS011;11972;48.078;11.876;2022-11-20T02:46:02;1.73;;;1.50;;
23588;SDS011;11972;48.078;11.876;2022-11-20T02:50:04;2.55;;;1.45;;
23588;SDS011;11972;48.078;11.876;2022-11-20T02:54:05;1.33;;;1.23;;
23588;SDS011;11972;48.078;11.876;2022-11-20T02:58:05;1.50;;;1.40;;
23588;SDS011;11972;48.078;11.876;2022-11-20T03:02:06;2.20;;;1.20;;
23588;SDS011;11972;48.078;11.876;2022-11-20T03:06:06;1.80;;;1.30;;
23588;SDS011;11972;48.078;11.876;2022-11-20T03:10:07;2.20;;;1.60;;
23588;SDS011;11972;48.078;11.876;2022-11-20T03:14:08;1.65;;;1.42;;
23588;SDS011;11972;48.078;11.876;2022-11-20T03:18:08;2.03;;;1.40;;
23588;SDS011;11972;48.078;11.876;2022-11-20T03:22:09;3.70;;;1.90;;
23588;SDS011;11972;48.078;11.876;2022-11-20T03:26:13;1.98;;;1.75;;
23588;SDS011;11972;48.078;11.876;2022-11-20T03:30:17;2.17;;;1.67;;
23588;SDS011;11972;48.078;11.876;2022-11-20T03:34:17;2.55;;;1.70;;
23588;SDS011;11972;48.078;11.876;2022-11-20T03:38:17;2.20;;;1.90;;
23588;SDS011;11972;48.078;11.876;2022-11-20T03:42:18;1.98;;;1.50;;
23588;SDS011;11972;48.078;11.876;2022-11-20T03:46:37;1.70;;;1.58;;
23588;SDS011;11972;48.078;11.876;2022-11-20T03:50:37;1.60;;;1.35;;
23588;SDS011;11972;48.078;11.876;2022-11-20T03:54:38;2.10;;;1.60;;
23588;SDS011;11972;48.078;11.876;2022-11-20T03:58:38;1.60;;;1.50;;
23588;SDS011;11972;48.078;11.876;2022-11-20T04:02:40;2.45;;;1.52;;
23588;SDS011;11972;48.078;11.876;2022-11-20T04:06:40;1.92;;;1.40;;
23588;SDS011;11972;48.078;11.876;2022-11-20T04:10:41;1.80;;;1.52;;
23588;SDS011;11972;48.078;11.876;2022-11-20T04:14:41;2.92;;;1.60;;
23588;SDS011;11972;48.078;11.876;2022-11-20T04:18:41;2.50;;;1.50;;
23588;SDS011;11972;48.078;11.876;2022-11-20T04:22:43;1.42;;;1.33;;
23588;SDS011;11972;48.078;11.876;2022-11-20T04:26:43;1.42;;;1.33;;
23588;SDS011;11972;48.078;11.876;2022-11-20T04:30:43;2.60;;;1.10;;
23588;SDS011;11972;48.078;11.876;2022-11-20T04:34:44;1.35;;;1.20;;
23588;SDS011;11972;48.078;11.876;2022-11-20T04:38:44;1.40;;;1.30;;
23588;SDS011;11972;48.078;11.876;2022-11-20T04:42:45;1.40;;;1.30;;
23588;SDS011;11972;48.078;11.876;2022-11-20T04:46:45;2.90;;;1.60;;
23588;SDS011;11972;48.078;11.876;2022-11-20T04:50:46;1.83;;;1.40;;
23588;SDS011;11972;48.078;11.876;2022-11-20T04:54:46;2.10;;;1.42;;
23588;SDS011;11972;48.078;11.876;2022-11-20T04:58:46;1.52;;;1.40;;
23588;SDS011;11972;48.078;11.876;2022-11-20T05:02:47;2.53;;;1.55;;
23588;SDS011;11972;48.078;11.876;2022-11-20T05:06:47;1.65;;;1.50;;
23588;SDS011;11972;48.078;11.876;2022-11-20T05:10:49;3.00;;;1.50;;
23588;SDS011;11972;48.078;11.876;2022-11-20T05:14:49;1.58;;;1.42;;
23588;SDS011;11972;48.078;11.876;2022-11-20T05:18:50;3.08;;;1.45;;
23588;SDS011;11972;48.078;11.876;2022-11-20T05:22:52;2.03;;;1.38;;
23588;SDS011;11972;48.078;11.876;2022-11-20T05:26:52;1.50;;;1.40;;
23588;SDS011;11972;48.078;11.876;2022-11-20T05:30:52;2.25;;;2.05;;
23588;SDS011;11972;48.078;11.876;2022-11-20T05:34:53;1.88;;;1.70;;
23588;SDS011;11972;48.078;11.876;2022-11-20T05:38:53;1.73;;;1.63;;
23588;SDS011;11972;48.078;11.876;2022-11-20T05:42:53;1.58;;;1.45;;
23588;SDS011;11972;48.078;11.876;2022-11-20T05:46:54;1.75;;;1.35;;
23588;SDS011;11972;48.078;11.876;2022-11-20T05:50:56;2.00;;;1.60;;
23588;SDS011;11972;48.078;11.876;2022-11-20T05:54:58;1.60;;;1.50;;
23588;SDS011;11972;48.078;11.876;2022-11-20T05:58:58;1.70;;;1.52;;
23588;SDS011;11972;48.078;11.876;2022-11-20T06:02:58;2.58;;;1.55;;
23588;SDS011;11972;48.078;11.876;2022-11-20T06:06:59;2.15;;;1.95;;
23588;SDS011;11972;48.078;11.876;2022-11-20T06:11:03;2.08;;;1.80;;
23588;SDS011;11972;48.078;11.876;2022-11-20T06:15:08;2.08;;;1.90;;
23588;SDS011;11972;48.078;11.876;2022-11-20T06:19:08;2.35;;;2.15;;
23588;SDS011;11972;48.078;11.876;2022-11-20T06:23:09;2.35;;;2.17;;
23588;SDS011;11972;48.078;11.876;2022-11-20T06:27:09;2.50;;;2.30;;
23588;SDS011;11972;48.078;11.876;2022-11-20T06:31:10;3.80;;;2.60;;
23588;SDS011;11972;48.078;11.876;2022-11-20T06:35:11;3.10;;;2.50;;
23588;SDS011;11972;48.078;11.876;2022-11-20T06:39:12;2.78;;;2.58;;
23588;SDS011;11972;48.078;11.876;2022-11-20T06:43:12;2.95;;;2.60;;
23588;SDS011;11972;48.078;11.876;2022-11-20T06:47:12;3.00;;;2.53;;
23588;SDS011;11972;48.078;11.876;2022-11-20T06:51:13;3.55;;;2.92;;
23588;SDS011;11972;48.078;11.876;2022-11-20T06:55:14;2.88;;;2.60;;
23588;SDS011;11972;48.078;11.876;2022-11-20T06:59:14;2.90;;;2.40;;
23588;SDS011;11972;48.078;11.876;2022-11-20T07:03:14;3.72;;;2.63;;
23588;SDS011;11972;48.078;11.876;2022-11-20T07:07:15;3.20;;;2.90;;
23588;SDS011;11972;48.078;11.876;2022-11-20T07:11:17;2.72;;;2.53;;
23588;SDS011;11972;48.078;11.876;2022-11-20T07:15:18;3.25;;;2.95;;
23588;SDS011;11972;48.078;11.876;2022-11-20T07:19:23;2.00;;;1.90;;
23588;SDS011;11972;48.078;11.876;2022-11-20T07:23:26;2.55;;;2.10;;
23588;SDS011;11972;48.078;11.876;2022-11-20T07:27:29;2.75;;;2.45;;
23588;SDS011;11972;48.078;11.876;2022-11-20T07:31:32;2.58;;;2.38;;
23588;SDS011;11972;48.078;11.876;2022-11-20T07:35:33;3.15;;;2.38;;
23588;SDS011;11972;48.078;11.876;2022-11-20T07:39:33;2.58;;;2.10;;
23588;SDS011;11972;48.078;11.876;2022-11-20T07:43:34;2.63;;;1.85;;
23588;SDS011;11972;48.078;11.876;2022-11-20T07:47:38;2.30;;;2.08;;
23588;SDS011;11972;48.078;11.876;2022-11-20T07:51:38;2.47;;;1.95;;
23588;SDS011;11972;48.078;11.876;2022-11-20T07:55:38;2.75;;;2.20;;
23588;SDS011;11972;48.078;11.876;2022-11-20T07:59:39;2.28;;;1.63;;
23588;SDS011;11972;48.078;11.876;2022-11-20T08:03:39;3.58;;;1.92;;
23588;SDS011;11972;48.078;11.876;2022-11-20T08:07:40;1.35;;;1.25;;
23588;SDS011;11972;48.078;11.876;2022-11-20T08:11:42;1.40;;;1.30;;
23588;SDS011;11972;48.078;11.876;2022-11-20T08:16:01;1.45;;;1.35;;
23588;SDS011;11972;48.078;11.876;2022-11-20T08:20:01;1.10;;;1.00;;
23588;SDS011;11972;48.078;11.876;2022-11-20T08:24:02;1.30;;;1.20;;
23588;SDS011;11972;48.078;11.876;2022-11-20T08:28:06;0.93;;;0.90;;
23588;SDS011;11972;48.078;11.876;2022-11-20T08:32:08;1.98;;;1.38;;
23588;SDS011;11972;48.078;11.876;2022-11-20T08:36:09;2.58;;;1.20;;
23588;SDS011;11972;48.078;11.876;2022-11-20T08:40:09;1.45;;;1.20;;
23588;SDS011;11972;48.078;11.876;2022-11-20T08:44:11;1.50;;;0.90;;
23588;SDS011;11972;48.078;11.876;2022-11-20T08:48:11;1.50;;;0.90;;
23588;SDS011;11972;48.078;11.876;2022-11-20T08:52:11;2.33;;;1.15;;
23588;SDS011;11972;48.078;11.876;2022-11-20T08:56:12;0.80;;;0.80;;
23588;SDS011;11972;48.078;11.876;2022-11-20T09:00:12;1.98;;;0.90;;
23588;SDS011;11972;48.078;11.876;2022-11-20T09:04:13;1.05;;;0.80;;
23588;SDS011;11972;48.078;11.876;2022-11-20T09:08:14;1.17;;;0.90;;
23588;SDS011;11972;48.078;11.876;2022-11-20T09:12:14;1.98;;;1.30;;
23588;SDS011;11972;48.078;11.876;2022-11-20T09:16:15;1.48;;;1.38;;
23588;SDS011;11972;48.078;11.876;2022-11-20T09:20:15;1.00;;;0.80;;
23588;SDS011;11972;48.078;11.876;2022-11-20T09:24:16;3.10;;;0.90;;
23588;SDS011;11972;48.078;11.876;2022-11-20T09:28:16;1.42;;;0.75;;
23588;SDS011;11972;48.078;11.876;2022-11-20T09:32:18;1.33;;;0.80;;
23588;SDS011;11972;48.078;11.876;2022-11-20T09:36:18;1.35;;;0.77;;
23588;SDS011;11972;48.078;11.876;2022-11-20T09:40:23;0.95;;;0.82;;
23588;SDS011;11972;48.078;11.876;2022-11-20T09:44:39;2.35;;;0.80;;
23588;SDS011;11972;48.078;11.876;2022-11-20T09:57:36;1.23;;;0.70;;
23588;SDS011;11972;48.078;11.876;2022-11-20T10:01:39;1.42;;;0.70;;
23588;SDS011;11972;48.078;11.876;2022-11-20T10:05:42;0.68;;;0.50;;
23588;SDS011;11972;48.078;11.876;2022-11-20T10:09:52;0.70;;;0.70;;
23588;SDS011;11972;48.078;11.876;2022-11-20T10:31:56;0.63;;;0.30;;
23588;SDS011;11972;48.078;11.876;2022-11-20T10:36:14;1.88;;;0.80;;
23588;SDS011;11972;48.078;11.876;2022-11-20T10:40:19;1.27;;;0.60;;
23588;SDS011;11972;48.078;11.876;2022-11-20T10:44:27;0.63;;;0.50;;
23588;SDS011;11972;48.078;11.876;2022-11-20T10:48:47;0.68;;;0.50;;
23588;SDS011;11972;48.078;11.876;2022-11-20T10:53:04;0.57;;;0.40;;
23588;SDS011;11972;48.078;11.876;2022-11-20T10:58:16;0.70;;;0.47;;
23588;SDS011;11972;48.078;11.876;2022-11-20T11:01:52;1.00;;;0.60;;
23588;SDS011;11972;48.078;11.876;2022-11-20T11:06:36;0.90;;;0.55;;
23588;SDS011;11972;48.078;11.876;2022-11-20T11:14:55;1.60;;;0.30;;
23588;SDS011;11972;48.078;11.876;2022-11-20T11:19:04;0.50;;;0.30;;
23588;SDS011;11972;48.078;11.876;2022-11-20T11:23:10;0.22;;;0.22;;
23588;SDS011;11972;48.078;11.876;2022-11-20T11:27:34;0.70;;;0.45;;
23588;SDS011;11972;48.078;11.876;2022-11-20T11:31:34;0.63;;;0.20;;
23588;SDS011;11972;48.078;11.876;2022-11-20T11:35:39;0.63;;;0.40;;
23588;SDS011;11972;48.078;11.876;2022-11-20T11:39:45;0.73;;;0.55;;
23588;SDS011;11972;48.078;11.876;2022-11-20T11:43:51;0.50;;;0.40;;
23588;SDS011;11972;48.078;11.876;2022-11-20T11:48:11;0.40;;;0.40;;
23588;SDS011;11972;48.078;11.876;2022-11-20T11:52:14;0.70;;;0.50;;
23588;SDS011;11972;48.078;11.876;2022-11-20T11:56:19;0.80;;;0.43;;
23588;SDS011;11972;48.078;11.876;2022-11-20T12:00:21;0.50;;;0.35;;
23588;SDS011;11972;48.078;11.876;2022-11-20T12:08:32;0.68;;;0.40;;
23588;SDS011;11972;48.078;11.876;2022-11-20T12:12:45;0.50;;;0.40;;
23588;SDS011;11972;48.078;11.876;2022-11-20T12:16:50;0.98;;;0.55;;
23588;SDS011;11972;48.078;11.876;2022-11-20T12:25:03;1.38;;;0.60;;
23588;SDS011;11972;48.078;11.876;2022-11-20T12:29:32;1.63;;;0.45;;
23588;SDS011;11972;48.078;11.876;2022-11-20T12:42:38;0.75;;;0.60;;
23588;SDS011;11972;48.078;11.876;2022-11-20T12:47:17;0.63;;;0.60;;
23588;SDS011;11972;48.078;11.876;2022-11-20T13:00:20;1.48;;;0.90;;
23588;SDS011;11972;48.078;11.876;2022-11-20T13:08:56;0.65;;;0.63;;
23588;SDS011;11972;48.078;11.876;2022-11-20T13:12:58;0.60;;;0.57;;
23588;SDS011;11972;48.078;11.876;2022-11-20T13:17:05;0.73;;;0.60;;
23588;SDS011;11972;48.078;11.876;2022-11-20T13:21:19;0.55;;;0.50;;
23588;SDS011;11972;48.078;11.876;2022-11-20T13:25:22;0.57;;;0.50;;
23588;SDS011;11972;48.078;11.876;2022-11-20T13:29:22;1.58;;;0.93;;
23588;SDS011;11972;48.078;11.876;2022-11-20T13:33:35;1.63;;;0.70;;
23588;SDS011;11972;48.078;11.876;2022-11-20T13:37:38;0.80;;;0.70;;
23588;SDS011;11972;48.078;11.876;2022-11-20T13:41:39;0.52;;;0.50;;
23588;SDS011;11972;48.078;11.876;2022-11-20T13:45:40;0.85;;;0.60;;
23588;SDS011;11972;48.078;11.876;2022-11-20T13:49:41;0.90;;;0.65;;
23588;SDS011;11972;48.078;11.876;2022-11-20T13:54:01;0.63;;;0.57;;
23588;SDS011;11972;48.078;11.876;2022-11-20T13:58:07;0.80;;;0.70;;
23588;SDS011;11972;48.078;11.876;2022-11-20T14:02:16;1.20;;;0.80;;
23588;SDS011;11972;48.078;11.876;2022-11-20T14:06:28;0.63;;;0.60;;
23588;SDS011;11972;48.078;11.876;2022-11-20T14:10:31;1.80;;;0.75;;
23588;SDS011;11972;48.078;11.876;2022-11-20T14:14:32;1.05;;;0.95;;
23588;SDS011;11972;48.078;11.876;2022-11-20T14:18:33;1.20;;;0.95;;
23588;SDS011;11972;48.078;11.876;2022-11-20T14:22:34;1.80;;;1.00;;
23588;SDS011;11972;48.078;11.876;2022-11-20T14:26:34;1.83;;;1.20;;
23588;SDS011;11972;48.078;11.876;2022-11-20T14:30:45;2.00;;;0.70;;
23588;SDS011;11972;48.078;11.876;2022-11-20T14:34:48;0.80;;;0.80;;
23588;SDS011;11972;48.078;11.876;2022-11-20T14:38:51;1.55;;;0.90;;
23588;SDS011;11972;48.078;11.876;2022-11-20T14:42:52;1.65;;;0.95;;
23588;SDS011;11972;48.078;11.876;2022-11-20T14:46:53;2.58;;;0.82;;
23588;SDS011;11972;48.078;11.876;2022-11-20T14:50:55;1.33;;;0.82;;
23588;SDS011;11972;48.078;11.876;2022-11-20T14:54:56;1.45;;;1.05;;
23588;SDS011;11972;48.078;11.876;2022-11-20T14:59:01;1.15;;;1.05;;
23588;SDS011;11972;48.078;11.876;2022-11-20T15:03:01;1.52;;;1.20;;
23588;SDS011;11972;48.078;11.876;2022-11-20T15:07:01;1.33;;;1.10;;
23588;SDS011;11972;48.078;11.876;2022-11-20T15:11:02;1.30;;;0.90;;
23588;SDS011;11972;48.078;11.876;2022-11-20T15:15:03;1.33;;;1.00;;
23588;SDS011;11972;48.078;11.876;2022-11-20T15:19:08;0.90;;;0.80;;
23588;SDS011;11972;48.078;11.876;2022-11-20T15:23:18;1.20;;;1.08;;
23588;SDS011;11972;48.078;11.876;2022-11-20T15:27:19;1.25;;;0.93;;
23588;SDS011;11972;48.078;11.876;2022-11-20T15:31:21;1.08;;;0.50;;
23588;SDS011;11972;48.078;11.876;2022-11-20T15:35:22;0.75;;;0.52;;
23588;SDS011;11972;48.078;11.876;2022-11-20T15:39:23;0.60;;;0.50;;
23588;SDS011;11972;48.078;11.876;2022-11-20T15:43:23;1.10;;;0.60;;
23588;SDS011;11972;48.078;11.876;2022-11-20T15:47:31;0.40;;;0.40;;
23588;SDS011;11972;48.078;11.876;2022-11-20T15:51:34;0.75;;;0.70;;
23588;SDS011;11972;48.078;11.876;2022-11-20T15:55:37;0.85;;;0.50;;
23588;SDS011;11972;48.078;11.876;2022-11-20T15:59:37;1.48;;;0.50;;
23588;SDS011;11972;48.078;11.876;2022-11-20T16:03:39;0.90;;;0.70;;
23588;SDS011;11972;48.078;11.876;2022-11-20T16:07:40;0.82;;;0.70;;
23588;SDS011;11972;48.078;11.876;2022-11-20T16:11:40;1.00;;;0.60;;
23588;SDS011;11972;48.078;11.876;2022-11-20T16:15:41;0.82;;;0.77;;
23588;SDS011;11972;48.078;11.876;2022-11-20T16:19:47;0.98;;;0.90;;
23588;SDS011;11972;48.078;11.876;2022-11-20T16:23:48;0.95;;;0.85;;
23588;SDS011;11972;48.078;11.876;2022-11-20T16:27:48;1.15;;;0.75;;
23588;SDS011;11972;48.078;11.876;2022-11-20T16:31:48;1.38;;;1.27;;
23588;SDS011;11972;48.078;11.876;2022-11-20T16:35:49;1.58;;;0.90;;
23588;SDS011;11972;48.078;11.876;2022-11-20T16:39:49;1.13;;;0.90;;
23588;SDS011;11972;48.078;11.876;2022-11-20T16:43:50;3.45;;;2.17;;
23588;SDS011;11972;48.078;11.876;2022-11-20T16:47:52;13.88;;;7.95;;
23588;SDS011;11972;48.078;11.876;2022-11-20T16:51:53;5.20;;;3.05;;
23588;SDS011;11972;48.078;11.876;2022-11-20T16:55:53;1.20;;;0.93;;
23588;SDS011;11972;48.078;11.876;2022-11-20T16:59:54;2.63;;;0.90;;
23588;SDS011;11972;48.078;11.876;2022-11-20T17:03:58;3.88;;;2.60;;
23588;SDS011;11972;48.078;11.876;2022-11-20T17:12:03;2.97;;;2.30;;
23588;SDS011;11972;48.078;11.876;2022-11-20T17:16:05;1.75;;;1.20;;
23588;SDS011;11972;48.078;11.876;2022-11-20T17:20:07;2.33;;;1.20;;
23588;SDS011;11972;48.078;11.876;2022-11-20T17:24:09;2.53;;;1.73;;
23588;SDS011;11972;48.078;11.876;2022-11-20T17:28:10;2.10;;;1.70;;
23588;SDS011;11972;48.078;11.876;2022-11-20T17:32:11;2.72;;;2.25;;
23588;SDS011;11972;48.078;11.876;2022-11-20T17:36:12;2.63;;;1.67;;
23588;SDS011;11972;48.078;11.876;2022-11-20T17:40:14;1.63;;;1.45;;
23588;SDS011;11972;48.078;11.876;2022-11-20T17:44:15;2.20;;;2.00;;
23588;SDS011;11972;48.078;11.876;2022-11-20T17:48:15;5.70;;;4.18;;
23588;SDS011;11972;48.078;11.876;2022-11-20T17:52:15;10.15;;;8.48;;
23588;SDS011;11972;48.078;11.876;2022-11-20T17:56:16;5.55;;;4.75;;
23588;SDS011;11972;48.078;11.876;2022-11-20T18:00:35;5.32;;;4.78;;
23588;SDS011;11972;48.078;11.876;2022-11-20T18:04:36;8.82;;;4.60;;
23588;SDS011;11972;48.078;11.876;2022-11-20T18:08:36;6.03;;;5.43;;
23588;SDS011;11972;48.078;11.876;2022-11-20T18:12:37;14.20;;;7.85;;
23588;SDS011;11972;48.078;11.876;2022-11-20T18:16:38;13.23;;;9.43;;
23588;SDS011;11972;48.078;11.876;2022-11-20T18:20:43;10.48;;;8.45;;
23588;SDS011;11972;48.078;11.876;2022-11-20T18:24:43;11.43;;;8.55;;
23588;SDS011;11972;48.078;11.876;2022-11-20T18:28:45;8.70;;;7.80;;
23588;SDS011;11972;48.078;11.876;2022-11-20T18:32:45;4.80;;;3.03;;
23588;SDS011;11972;48.078;11.876;2022-11-20T18:36:46;7.18;;;6.22;;
23588;SDS011;11972;48.078;11.876;2022-11-20T18:40:46;7.93;;;6.68;;
23588;SDS011;11972;48.078;11.876;2022-11-20T18:44:46;11.15;;;8.25;;
23588;SDS011;11972;48.078;11.876;2022-11-20T18:48:50;6.80;;;5.85;;
23588;SDS011;11972;48.078;11.876;2022-11-20T18:52:50;6.65;;;5.95;;
23588;SDS011;11972;48.078;11.876;2022-11-20T18:56:51;8.70;;;7.80;;
23588;SDS011;11972;48.078;11.876;2022-11-20T19:00:51;35.40;;;20.10;;
23588;SDS011;11972;48.078;11.876;2022-11-20T19:04:51;8.38;;;6.10;;
23588;SDS011;11972;48.078;11.876;2022-11-20T19:08:52;6.75;;;6.10;;
23588;SDS011;11972;48.078;11.876;2022-11-20T19:12:52;13.75;;;9.07;;
23588;SDS011;11972;48.078;11.876;2022-11-20T19:16:53;21.50;;;13.25;;
23588;SDS011;11972;48.078;11.876;2022-11-20T19:20:53;23.05;;;13.38;;
23588;SDS011;11972;48.078;11.876;2022-11-20T19:24:53;15.68;;;10.98;;
23588;SDS011;11972;48.078;11.876;2022-11-20T19:28:54;18.65;;;11.80;;
23588;SDS011;11972;48.078;11.876;2022-11-20T19:32:54;18.50;;;11.88;;
23588;SDS011;11972;48.078;11.876;2022-11-20T19:36:57;16.27;;;10.95;;
23588;SDS011;11972;48.078;11.876;2022-11-20T19:40:59;18.88;;;12.65;;
23588;SDS011;11972;48.078;11.876;2022-11-20T19:44:59;26.08;;;15.02;;
23588;SDS011;11972;48.078;11.876;2022-11-20T19:49:00;22.23;;;13.13;;
23588;SDS011;11972;48.078;11.876;2022-11-20T19:53:00;16.70;;;10.65;;
23588;SDS011;11972;48.078;11.876;2022-11-20T19:57:01;14.75;;;9.63;;
23588;SDS011;11972;48.078;11.876;2022-11-20T20:01:20;11.13;;;7.80;;
23588;SDS011;11972;48.078;11.876;2022-11-20T20:05:22;6.28;;;5.68;;
23588;SDS011;11972;48.078;11.876;2022-11-20T20:09:22;6.10;;;5.50;;
23588;SDS011;11972;48.078;11.876;2022-11-20T20:13:25;6.53;;;5.95;;
23588;SDS011;11972;48.078;11.876;2022-11-20T20:17:26;7.65;;;6.28;;
23588;SDS011;11972;48.078;11.876;2022-11-20T20:21:26;7.20;;;6.45;;
23588;SDS011;11972;48.078;11.876;2022-11-20T20:25:29;9.60;;;7.32;;
23588;SDS011;11972;48.078;11.876;2022-11-20T20:29:29;10.75;;;6.88;;
23588;SDS011;11972;48.078;11.876;2022-11-20T20:33:30;10.63;;;7.65;;
23588;SDS011;11972;48.078;11.876;2022-11-20T20:37:30;10.07;;;7.38;;
23588;SDS011;11972;48.078;11.876;2022-11-20T20:41:30;9.45;;;6.03;;
23588;SDS011;11972;48.078;11.876;2022-11-20T20:45:31;7.32;;;5.47;;
23588;SDS011;11972;48.078;11.876;2022-11-20T20:49:32;8.65;;;5.07;;
23588;SDS011;11972;48.078;11.876;2022-11-20T20:53:32;4.68;;;3.75;;
23588;SDS011;11972;48.078;11.876;2022-11-20T20:57:33;8.75;;;6.38;;
23588;SDS011;11972;48.078;11.876;2022-11-20T21:01:33;13.30;;;7.75;;
23588;SDS011;11972;48.078;11.876;2022-11-20T21:05:34;6.85;;;5.40;;
23588;SDS011;11972;48.078;11.876;2022-11-20T21:09:34;4.55;;;4.00;;
23588;SDS011;11972;48.078;11.876;2022-11-20T21:13:35;4.40;;;4.00;;
23588;SDS011;11972;48.078;11.876;2022-11-20T21:17:36;4.70;;;3.33;;
23588;SDS011;11972;48.078;11.876;2022-11-20T21:21:37;5.10;;;4.30;;
23588;SDS011;11972;48.078;11.876;2022-11-20T21:25:58;6.75;;;4.35;;
23588;SDS011;11972;48.078;11.876;2022-11-20T21:30:00;5.28;;;4.30;;
23588;SDS011;11972;48.078;11.876;2022-11-20T21:34:01;5.90;;;5.30;;
23588;SDS011;11972;48.078;11.876;2022-11-20T21:38:01;9.05;;;5.82;;
23588;SDS011;11972;48.078;11.876;2022-11-20T21:42:02;7.38;;;5.40;;
23588;SDS011;11972;48.078;11.876;2022-11-20T21:46:03;14.32;;;8.20;;
23588;SDS011;11972;48.078;11.876;2022-11-20T21:50:09;7.05;;;4.50;;
23588;SDS011;11972;48.078;11.876;2022-11-20T21:54:10;3.20;;;2.05;;
23588;SDS011;11972;48.078;11.876;2022-11-20T21:58:13;1.20;;;1.10;;
23588;SDS011;11972;48.078;11.876;2022-11-20T22:02:13;1.50;;;1.10;;
23588;SDS011;11972;48.078;11.876;2022-11-20T22:06:14;1.42;;;0.90;;
23588;SDS011;11972;48.078;11.876;2022-11-20T22:10:14;0.90;;;0.70;;
23588;SDS011;11972;48.078;11.876;2022-11-20T22:14:15;0.65;;;0.60;;
23588;SDS011;11972;48.078;11.876;2022-11-20T22:18:21;1.00;;;0.80;;
23588;SDS011;11972;48.078;11.876;2022-11-20T22:22:21;1.10;;;0.77;;
23588;SDS011;11972;48.078;11.876;2022-11-20T22:26:23;0.52;;;0.50;;
23588;SDS011;11972;48.078;11.876;2022-11-20T22:30:28;0.60;;;0.50;;
23588;SDS011;11972;48.078;11.876;2022-11-20T22:34:29;0.70;;;0.68;;
23588;SDS011;11972;48.078;11.876;2022-11-20T22:38:29;0.65;;;0.60;;
23588;SDS011;11972;48.078;11.876;2022-11-20T22:42:30;0.75;;;0.50;;
23588;SDS011;11972;48.078;11.876;2022-11-20T22:46:31;1.25;;;0.77;;
23588;SDS011;11972;48.078;11.876;2022-11-20T22:50:33;1.05;;;0.90;;
23588;SDS011;11972;48.078;11.876;2022-11-20T22:54:33;1.40;;;0.88;;
23588;SDS011;11972;48.078;11.876;2022-11-20T22:58:34;1.88;;;0.95;;
23588;SDS011;11972;48.078;11.876;2022-11-20T23:02:36;1.20;;;1.10;;
23588;SDS011;11972;48.078;11.876;2022-11-20T23:06:36;1.13;;;0.98;;
23588;SDS011;11972;48.078;11.876;2022-11-20T23:10:37;1.25;;;0.93;;
23588;SDS011;11972;48.078;11.876;2022-11-20T23:14:37;1.20;;;1.10;;
23588;SDS011;11972;48.078;11.876;2022-11-20T23:18:38;2.08;;;1.27;;
23588;SDS011;11972;48.078;11.876;2022-11-20T23:22:39;1.48;;;0.90;;
23588;SDS011;11972;48.078;11.876;2022-11-20T23:26:39;1.00;;;0.90;;
23588;SDS011;11972;48.078;11.876;2022-11-20T23:30:40;0.82;;;0.80;;
23588;SDS011;11972;48.078;11.876;2022-11-20T23:34:40;1.63;;;0.77;;
23588;SDS011;11972;48.078;11.876;2022-11-20T23:38:40;1.27;;;0.55;;
23588;SDS011;11972;48.078;11.876;2022-11-20T23:42:41;1.23;;;0.63;;
23588;SDS011;11972;48.078;11.876;2022-11-20T23:47:01;0.57;;;0.50;;
23588;SDS011;11972;48.078;11.876;2022-11-20T23:51:02;2.85;;;0.70;;
23588;SDS011;11972;48.078;11.876;2022-11-20T23:55:04;0.50;;;0.50;;
23588;SDS011;11972;48.078;11.876;2022-11-20T23:59:05;0.82;;;0.55;;
